Time;durP1;ratioP1;P1;durP2;ratioP2;P2;SDS_P1;SDS_P2;PMS_P1;PMS_P2;Temp;Humidity;BMP_temperature;BMP_pressure;BME280_temperature;BME280_humidity;BME280_pressure;Samples;Min_cycle;Max_cycle;Signal;HPM_P1;HPM_P2
2023/12/29 00:00:06;;;;;;;12.95;1.48;;;11.40;99.90;;;;;;5037531;28;20043;-79
2023/12/29 00:02:32;;;;;;;12.93;1.10;;;11.40;99.90;;;;;;5019983;28;20124;-78
2023/12/29 00:04:58;;;;;;;15.27;1.80;;;11.40;99.90;;;;;;5036876;28;20057;-78
2023/12/29 00:07:23;;;;;;;10.57;1.23;;;11.40;99.90;;;;;;5036302;28;20112;-78
2023/12/29 00:09:49;;;;;;;12.35;1.17;;;11.40;99.90;;;;;;5036694;28;20105;-78
2023/12/29 00:12:14;;;;;;;12.60;1.02;;;11.50;99.90;;;;;;5036454;28;20136;-78
2023/12/29 00:14:40;;;;;;;12.02;1.20;;;11.50;99.90;;;;;;5036943;28;20091;-78
2023/12/29 00:17:06;;;;;;;13.13;1.60;;;11.50;99.90;;;;;;5038233;28;20407;-78
2023/12/29 00:19:32;;;;;;;11.55;1.85;;;11.50;99.90;;;;;;5036611;28;20053;-78
2023/12/29 00:21:59;;;;;;;9.13;1.38;;;11.50;99.90;;;;;;5036030;28;20443;-79
2023/12/29 00:24:25;;;;;;;12.18;1.17;;;11.50;99.90;;;;;;5036387;28;20084;-78
2023/12/29 00:26:51;;;;;;;10.45;1.20;;;11.60;99.90;;;;;;5036594;28;20124;-78
2023/12/29 00:29:17;;;;;;;10.73;1.55;;;11.50;99.90;;;;;;5036517;28;20113;-78
2023/12/29 00:31:43;;;;;;;8.15;1.00;;;11.50;99.90;;;;;;5036337;28;20033;-78
2023/12/29 00:34:09;;;;;;;10.32;1.17;;;11.50;99.90;;;;;;5036235;28;20034;-78
2023/12/29 00:36:35;;;;;;;12.57;1.42;;;11.40;99.90;;;;;;5036303;28;20075;-78
2023/12/29 00:39:00;;;;;;;8.13;1.13;;;11.30;99.90;;;;;;5036303;28;20033;-78
2023/12/29 00:41:26;;;;;;;15.15;1.25;;;11.30;99.90;;;;;;5035838;28;20037;-78
2023/12/29 00:43:51;;;;;;;13.32;1.20;;;11.30;99.90;;;;;;5036147;28;20148;-78
2023/12/29 00:46:17;;;;;;;8.68;1.40;;;11.30;99.90;;;;;;5035562;28;20316;-78
2023/12/29 00:48:43;;;;;;;12.73;1.35;;;11.20;99.90;;;;;;5035528;28;20029;-78
2023/12/29 00:51:08;;;;;;;9.25;1.15;;;11.20;99.90;;;;;;5035356;28;20108;-78
2023/12/29 00:53:37;;;;;;;13.48;1.00;;;11.20;99.90;;;;;;5035646;28;20040;-79
2023/12/29 00:56:09;;;;;;;11.38;1.52;;;11.20;99.90;;;;;;5036918;28;20033;-79
2023/12/29 00:58:34;;;;;;;10.25;1.30;;;11.20;99.90;;;;;;5037616;28;20091;-79
2023/12/29 01:01:00;;;;;;;8.02;1.08;;;11.20;99.90;;;;;;5036679;28;20033;-78
2023/12/29 01:03:25;;;;;;;12.40;1.65;;;11.30;99.90;;;;;;5036378;28;20064;-79
2023/12/29 01:05:51;;;;;;;9.93;0.80;;;11.30;99.90;;;;;;5036165;28;20049;-79
2023/12/29 01:08:17;;;;;;;13.73;1.17;;;11.30;99.90;;;;;;5035899;28;20040;-79
2023/12/29 01:10:42;;;;;;;6.97;0.88;;;11.40;99.90;;;;;;5036482;28;20029;-79
2023/12/29 01:13:08;;;;;;;10.90;1.33;;;11.40;99.90;;;;;;5035630;28;20062;-80
2023/12/29 01:15:34;;;;;;;11.80;1.30;;;11.40;99.90;;;;;;5036451;28;20048;-79
2023/12/29 01:18:00;;;;;;;11.93;1.10;;;11.40;99.90;;;;;;5037691;28;20053;-79
2023/12/29 01:20:25;;;;;;;6.32;0.90;;;11.40;99.90;;;;;;5037544;28;20025;-80
2023/12/29 01:22:51;;;;;;;10.82;1.67;;;11.40;99.90;;;;;;5036505;28;20501;-80
2023/12/29 01:25:17;;;;;;;12.60;1.67;;;11.40;99.90;;;;;;5034898;28;20041;-79
2023/12/29 01:27:42;;;;;;;9.07;0.90;;;11.40;99.90;;;;;;5036116;28;20033;-79
2023/12/29 01:30:08;;;;;;;11.32;1.55;;;11.40;99.90;;;;;;5035462;28;20065;-79
2023/12/29 01:32:34;;;;;;;11.60;0.90;;;11.30;99.90;;;;;;5035393;28;20045;-79
2023/12/29 01:34:59;;;;;;;10.90;0.90;;;11.30;99.90;;;;;;5035541;28;20036;-79
2023/12/29 01:37:25;;;;;;;9.50;1.15;;;11.20;99.90;;;;;;5036093;28;20379;-79
2023/12/29 01:39:51;;;;;;;9.82;1.10;;;11.20;99.90;;;;;;5036831;28;20042;-80
2023/12/29 01:42:16;;;;;;;9.15;0.82;;;11.20;99.90;;;;;;5036460;28;20041;-79
2023/12/29 01:44:44;;;;;;;6.63;0.90;;;11.20;99.90;;;;;;5037421;28;20029;-79
2023/12/29 01:47:16;;;;;;;12.80;1.13;;;11.20;99.90;;;;;;5035976;28;20360;-80
2023/12/29 01:49:45;;;;;;;10.90;0.95;;;11.20;99.90;;;;;;5037743;28;20026;-79
2023/12/29 01:52:11;;;;;;;12.73;1.52;;;11.10;99.90;;;;;;5037458;28;20128;-79
2023/12/29 01:54:42;;;;;;;11.10;1.55;;;11.10;99.90;;;;;;5037735;28;20475;-79
2023/12/29 01:57:08;;;;;;;9.90;1.15;;;11.10;99.90;;;;;;5038920;28;20519;-80
2023/12/29 01:59:35;;;;;;;11.15;1.27;;;11.10;99.90;;;;;;5038419;28;20087;-79
2023/12/29 02:02:02;;;;;;;9.57;0.95;;;11.10;99.90;;;;;;5018683;28;20036;-80
2023/12/29 02:04:28;;;;;;;7.65;0.88;;;11.10;99.90;;;;;;5035630;28;20039;-80
2023/12/29 02:06:54;;;;;;;10.90;1.48;;;11.20;99.90;;;;;;5034769;28;20029;-80
2023/12/29 02:09:21;;;;;;;10.98;1.00;;;11.10;99.90;;;;;;5034270;28;20056;-80
2023/12/29 02:11:47;;;;;;;8.65;1.10;;;11.10;99.90;;;;;;5034601;28;20103;-80
2023/12/29 02:14:15;;;;;;;12.65;1.52;;;11.10;99.90;;;;;;5034422;28;20108;-80
2023/12/29 02:16:45;;;;;;;11.30;1.85;;;11.10;99.90;;;;;;5034655;28;20030;-80
2023/12/29 02:19:19;;;;;;;7.68;0.93;;;11.10;99.90;;;;;;5033621;28;20030;-80
2023/12/29 02:21:44;;;;;;;11.23;2.42;;;11.10;99.90;;;;;;5035073;28;20076;-77
2023/12/29 02:24:10;;;;;;;10.95;1.65;;;11.10;99.90;;;;;;5033994;28;20141;-77
2023/12/29 02:26:36;;;;;;;9.05;1.13;;;11.10;99.90;;;;;;5034921;28;20092;-77
2023/12/29 02:29:06;;;;;;;8.93;1.23;;;11.00;99.90;;;;;;5034064;28;20041;-77
2023/12/29 02:31:38;;;;;;;11.75;1.45;;;11.00;99.90;;;;;;5032917;28;20057;-77
2023/12/29 02:34:06;;;;;;;11.00;1.17;;;11.00;99.90;;;;;;5034169;28;20026;-77
2023/12/29 02:36:34;;;;;;;8.52;1.10;;;11.00;99.90;;;;;;5035430;28;20033;-78
2023/12/29 02:38:59;;;;;;;12.57;1.23;;;10.90;99.90;;;;;;5037144;28;20514;-78
2023/12/29 02:41:25;;;;;;;12.43;0.98;;;10.90;99.90;;;;;;5034251;28;20029;-77
2023/12/29 02:43:51;;;;;;;8.93;1.45;;;10.90;99.90;;;;;;5033601;28;20052;-77
2023/12/29 02:46:17;;;;;;;13.07;1.20;;;10.90;99.90;;;;;;5035467;28;20076;-78
2023/12/29 02:48:42;;;;;;;10.13;1.02;;;10.80;99.90;;;;;;5034427;28;20033;-78
2023/12/29 02:51:08;;;;;;;8.98;0.80;;;10.80;99.90;;;;;;5032728;28;20049;-77
2023/12/29 02:53:34;;;;;;;11.25;1.40;;;10.90;99.90;;;;;;5034408;28;20440;-77
2023/12/29 02:56:00;;;;;;;12.02;1.55;;;10.80;99.90;;;;;;5034667;28;20033;-78
2023/12/29 02:58:25;;;;;;;12.68;1.10;;;10.90;99.90;;;;;;5032919;28;20030;-78
2023/12/29 03:00:51;;;;;;;8.38;1.23;;;10.90;99.90;;;;;;5035926;28;20037;-78
2023/12/29 03:03:16;;;;;;;16.77;1.83;;;10.80;99.90;;;;;;5032561;28;20025;-78
2023/12/29 03:05:42;;;;;;;11.05;1.55;;;10.90;99.90;;;;;;5032279;28;20041;-77
2023/12/29 03:08:07;;;;;;;9.30;1.15;;;10.80;99.90;;;;;;5033114;28;20037;-77
2023/12/29 03:10:33;;;;;;;12.10;1.35;;;10.80;99.90;;;;;;5033409;28;20395;-77
2023/12/29 03:12:59;;;;;;;7.68;0.80;;;10.90;99.90;;;;;;5033010;28;20049;-77
2023/12/29 03:15:24;;;;;;;10.77;1.17;;;10.80;99.90;;;;;;5032286;28;20037;-77
2023/12/29 03:17:50;;;;;;;10.88;1.88;;;10.90;99.90;;;;;;5037630;28;20037;-78
2023/12/29 03:20:15;;;;;;;9.95;1.20;;;10.90;99.90;;;;;;5034795;28;20029;-78
2023/12/29 03:22:41;;;;;;;7.75;0.80;;;10.90;99.90;;;;;;5041214;28;20034;-80
2023/12/29 03:25:07;;;;;;;15.43;1.73;;;10.90;99.90;;;;;;5037777;28;20464;-81
2023/12/29 03:27:33;;;;;;;11.45;0.82;;;10.90;99.90;;;;;;5046545;28;20033;-81
2023/12/29 03:29:58;;;;;;;10.18;1.20;;;10.90;99.90;;;;;;5049126;28;20108;-80
2023/12/29 03:32:24;;;;;;;11.20;0.90;;;10.90;99.90;;;;;;5048245;28;20117;-81
2023/12/29 03:34:49;;;;;;;13.23;1.52;;;10.90;99.90;;;;;;5022372;28;20041;-80
2023/12/29 03:37:15;;;;;;;13.68;1.45;;;10.90;99.90;;;;;;5036045;28;20022;-80
2023/12/29 03:39:41;;;;;;;12.35;1.55;;;10.90;99.90;;;;;;5035630;28;20120;-80
2023/12/29 03:42:06;;;;;;;7.15;0.93;;;11.00;99.90;;;;;;5037536;28;20031;-80
2023/12/29 03:44:32;;;;;;;12.95;1.30;;;11.00;99.90;;;;;;5034763;28;20037;-79
2023/12/29 03:46:57;;;;;;;11.52;0.98;;;11.00;99.90;;;;;;5035354;28;20030;-79
2023/12/29 03:49:23;;;;;;;12.00;1.33;;;11.00;99.90;;;;;;5034881;28;20401;-79
2023/12/29 03:51:49;;;;;;;13.55;1.40;;;11.00;99.90;;;;;;5036428;28;20041;-80
2023/12/29 03:54:14;;;;;;;11.88;1.60;;;11.00;99.90;;;;;;5038405;28;20033;-79
2023/12/29 03:56:40;;;;;;;11.02;1.40;;;11.10;99.90;;;;;;5037554;28;20026;-79
2023/12/29 03:59:05;;;;;;;12.45;1.20;;;11.10;99.90;;;;;;5036598;28;20456;-79
2023/12/29 04:01:33;;;;;;;15.23;1.38;;;11.10;99.90;;;;;;5049150;28;20026;-80
2023/12/29 04:03:59;;;;;;;12.95;1.08;;;11.10;99.90;;;;;;5050833;28;20033;-80
2023/12/29 04:06:24;;;;;;;12.35;1.90;;;11.10;99.90;;;;;;5042738;28;20083;-80
2023/12/29 04:08:50;;;;;;;12.25;1.40;;;11.10;99.90;;;;;;5037128;28;20029;-80
2023/12/29 04:11:16;;;;;;;15.55;1.83;;;11.10;99.90;;;;;;5034848;28;20124;-79
2023/12/29 04:13:41;;;;;;;17.23;2.15;;;11.10;99.90;;;;;;5032466;28;20136;-79
2023/12/29 04:16:07;;;;;;;29.83;3.08;;;11.10;99.90;;;;;;5042559;28;20029;-79
2023/12/29 04:18:33;;;;;;;17.10;2.00;;;11.20;99.90;;;;;;5035797;28;20026;-81
2023/12/29 04:20:58;;;;;;;15.60;1.70;;;11.20;99.90;;;;;;5052070;28;20034;-81
2023/12/29 04:23:24;;;;;;;13.35;1.70;;;11.20;99.90;;;;;;5041615;28;20083;-80
2023/12/29 04:25:50;;;;;;;15.75;2.22;;;11.20;99.90;;;;;;5035665;28;20034;-79
2023/12/29 04:28:15;;;;;;;12.80;1.38;;;11.20;99.90;;;;;;5016566;28;20053;-79
2023/12/29 04:30:41;;;;;;;15.02;1.45;;;11.20;99.90;;;;;;5037274;28;20030;-79
2023/12/29 04:33:06;;;;;;;14.95;1.65;;;11.20;99.90;;;;;;5040777;28;20398;-80
2023/12/29 04:35:32;;;;;;;17.80;2.60;;;11.20;99.90;;;;;;5041132;28;20030;-80
2023/12/29 04:37:58;;;;;;;12.43;1.27;;;11.20;99.90;;;;;;5041425;28;20037;-79
2023/12/29 04:40:23;;;;;;;10.55;1.60;;;11.20;99.90;;;;;;5038935;28;20033;-80
2023/12/29 04:42:49;;;;;;;18.80;2.05;;;11.20;99.90;;;;;;5037327;28;20034;-79
2023/12/29 04:45:14;;;;;;;11.35;1.73;;;11.20;99.90;;;;;;5038624;28;20026;-80
2023/12/29 04:47:40;;;;;;;13.30;1.77;;;11.20;99.90;;;;;;5038069;28;20036;-80
2023/12/29 04:50:06;;;;;;;11.60;1.65;;;11.20;99.90;;;;;;5036937;28;20034;-80
2023/12/29 04:52:32;;;;;;;20.63;2.60;;;11.20;99.90;;;;;;5038820;28;20041;-79
2023/12/29 04:54:58;;;;;;;19.85;1.90;;;11.20;99.90;;;;;;5037518;28;20112;-78
2023/12/29 04:57:23;;;;;;;15.23;2.42;;;11.20;99.90;;;;;;5036031;28;20036;-81
2023/12/29 04:59:49;;;;;;;11.55;1.75;;;11.20;99.90;;;;;;5045714;28;20096;-81
2023/12/29 05:02:15;;;;;;;17.15;1.92;;;11.20;99.90;;;;;;5050698;28;20045;-80
2023/12/29 05:04:40;;;;;;;20.55;2.40;;;11.20;99.90;;;;;;5033953;28;20032;-81
2023/12/29 05:07:09;;;;;;;13.65;1.75;;;11.20;99.90;;;;;;5054448;28;20034;-81
2023/12/29 05:09:34;;;;;;;18.50;1.98;;;11.20;99.90;;;;;;5042186;28;20025;-79
2023/12/29 05:12:00;;;;;;;15.20;1.60;;;11.20;99.90;;;;;;5035576;28;20063;-79
2023/12/29 05:14:26;;;;;;;13.85;1.95;;;11.20;99.90;;;;;;5041030;28;20103;-80
2023/12/29 05:16:51;;;;;;;14.45;2.60;;;11.20;99.90;;;;;;5038064;28;20033;-80
2023/12/29 05:19:17;;;;;;;10.82;1.50;;;11.20;99.90;;;;;;5038338;28;20033;-80
2023/12/29 05:21:43;;;;;;;18.17;2.42;;;11.20;99.90;;;;;;5040067;28;20112;-80
2023/12/29 05:24:08;;;;;;;17.92;2.63;;;11.20;99.90;;;;;;5041148;28;20030;-80
2023/12/29 05:26:34;;;;;;;16.38;1.95;;;11.20;99.90;;;;;;5035909;28;20040;-80
2023/12/29 05:29:00;;;;;;;15.90;2.03;;;11.20;99.90;;;;;;5035336;28;20109;-78
2023/12/29 05:31:25;;;;;;;17.15;2.20;;;11.20;99.90;;;;;;5035293;28;20038;-80
2023/12/29 05:33:51;;;;;;;21.98;2.55;;;11.20;99.90;;;;;;5047560;28;20025;-80
2023/12/29 05:36:17;;;;;;;16.65;2.15;;;11.20;99.90;;;;;;5040233;28;20030;-81
2023/12/29 05:38:46;;;;;;;18.20;2.25;;;11.20;99.90;;;;;;5044997;28;20032;-80
2023/12/29 05:41:15;;;;;;;19.00;1.70;;;11.20;99.90;;;;;;5042336;28;20025;-80
2023/12/29 05:43:41;;;;;;;14.25;2.15;;;11.20;99.90;;;;;;5042761;28;20028;-80
2023/12/29 05:46:14;;;;;;;16.67;2.90;;;11.20;99.90;;;;;;5044635;28;20037;-80
2023/12/29 05:48:40;;;;;;;18.35;2.17;;;11.20;99.90;;;;;;5043022;28;20061;-80
2023/12/29 05:51:09;;;;;;;17.58;2.25;;;11.20;99.90;;;;;;5024544;28;20486;-80
2023/12/29 05:53:36;;;;;;;13.15;1.80;;;11.20;99.90;;;;;;5044025;28;20427;-80
2023/12/29 05:56:02;;;;;;;15.90;2.33;;;11.20;99.90;;;;;;5041985;28;20132;-80
2023/12/29 05:58:27;;;;;;;10.50;1.38;;;11.20;99.90;;;;;;5038049;28;20061;-80
2023/12/29 06:00:55;;;;;;;13.93;1.88;;;11.10;99.90;;;;;;5038663;28;20038;-81
2023/12/29 06:03:21;;;;;;;15.43;2.08;;;11.10;99.90;;;;;;5041350;28;20029;-81
2023/12/29 06:05:47;;;;;;;16.08;2.65;;;11.10;99.90;;;;;;5047641;28;20091;-79
2023/12/29 06:08:13;;;;;;;22.38;2.67;;;11.10;99.90;;;;;;5043477;28;20029;-79
2023/12/29 06:10:38;;;;;;;19.13;2.08;;;11.00;99.90;;;;;;5046054;28;20113;-79
2023/12/29 06:13:04;;;;;;;16.10;1.83;;;11.10;99.90;;;;;;5044356;28;20053;-79
2023/12/29 06:15:30;;;;;;;15.32;1.98;;;11.10;99.90;;;;;;5046007;28;20515;-79
2023/12/29 06:17:56;;;;;;;14.20;1.75;;;11.00;99.90;;;;;;5043483;28;20120;-78
2023/12/29 06:20:22;;;;;;;14.07;1.67;;;11.00;99.90;;;;;;5043126;28;20036;-80
2023/12/29 06:22:48;;;;;;;18.52;2.67;;;11.10;99.90;;;;;;5045743;28;20033;-79
2023/12/29 06:25:14;;;;;;;14.50;1.60;;;11.00;99.90;;;;;;5049022;28;20466;-79
2023/12/29 06:27:40;;;;;;;20.73;2.88;;;11.00;99.90;;;;;;5043281;28;20489;-80
2023/12/29 06:30:10;;;;;;;17.48;1.60;;;11.10;99.90;;;;;;5043817;28;20029;-80
2023/12/29 06:32:36;;;;;;;20.23;2.38;;;11.00;99.90;;;;;;5047028;28;20033;-80
2023/12/29 06:35:03;;;;;;;17.40;1.77;;;11.00;99.90;;;;;;5049341;28;20036;-80
2023/12/29 06:37:28;;;;;;;18.15;1.55;;;11.00;99.90;;;;;;5039071;28;20033;-77
2023/12/29 06:39:54;;;;;;;13.93;1.85;;;11.00;99.90;;;;;;5039785;28;20025;-80
2023/12/29 06:42:20;;;;;;;21.65;2.05;;;11.00;99.90;;;;;;5039535;28;20387;-78
2023/12/29 06:44:46;;;;;;;11.95;1.73;;;11.00;99.90;;;;;;5034976;28;20414;-79
2023/12/29 06:47:12;;;;;;;13.48;1.70;;;11.00;99.90;;;;;;5037302;28;20038;-79
2023/12/29 06:49:38;;;;;;;13.68;1.40;;;11.00;99.90;;;;;;5038130;28;20091;-79
2023/12/29 06:52:04;;;;;;;13.00;1.30;;;11.00;99.90;;;;;;5037404;28;20040;-78
2023/12/29 06:54:31;;;;;;;13.27;1.70;;;11.00;99.90;;;;;;5033350;28;20036;-78
2023/12/29 06:56:56;;;;;;;16.58;1.98;;;11.00;99.90;;;;;;5034661;28;20083;-78
2023/12/29 06:59:22;;;;;;;11.18;1.63;;;11.00;99.90;;;;;;5036120;28;20022;-78
2023/12/29 07:01:48;;;;;;;14.90;1.52;;;11.00;99.90;;;;;;5037801;28;20038;-79
2023/12/29 07:04:15;;;;;;;16.55;1.60;;;11.00;99.90;;;;;;5037201;28;20038;-79
2023/12/29 07:06:41;;;;;;;15.07;1.80;;;11.00;99.90;;;;;;5040091;28;20029;-79
2023/12/29 07:09:07;;;;;;;14.95;1.35;;;11.00;99.90;;;;;;5038806;28;20084;-79
2023/12/29 07:11:33;;;;;;;14.40;1.50;;;11.00;99.90;;;;;;5038473;28;20053;-79
2023/12/29 07:13:59;;;;;;;12.07;1.35;;;10.90;99.90;;;;;;5037827;28;20061;-78
2023/12/29 07:16:24;;;;;;;12.38;1.23;;;10.90;99.90;;;;;;5035407;28;20022;-78
2023/12/29 07:18:50;;;;;;;12.57;1.85;;;10.90;99.90;;;;;;5035386;28;20075;-78
2023/12/29 07:21:18;;;;;;;9.02;0.80;;;10.80;99.90;;;;;;5035171;28;20038;-78
2023/12/29 07:23:43;;;;;;;10.18;1.10;;;10.80;99.90;;;;;;5035025;28;20038;-78
2023/12/29 07:26:09;;;;;;;8.95;1.05;;;10.70;99.90;;;;;;5035086;28;20057;-78
2023/12/29 07:28:35;;;;;;;10.43;1.55;;;10.60;99.90;;;;;;5034452;28;20104;-79
2023/12/29 07:31:01;;;;;;;8.60;1.02;;;10.60;99.90;;;;;;5034807;28;20045;-78
2023/12/29 07:33:27;;;;;;;9.00;1.10;;;10.50;99.90;;;;;;5036681;28;20061;-79
2023/12/29 07:35:53;;;;;;;12.70;1.38;;;10.50;99.90;;;;;;5034152;28;20368;-79
2023/12/29 07:38:18;;;;;;;12.90;1.52;;;10.50;99.90;;;;;;5038756;28;20084;-79
2023/12/29 07:40:44;;;;;;;14.60;1.52;;;10.50;99.90;;;;;;5035767;28;20033;-76
2023/12/29 07:43:10;;;;;;;8.73;0.93;;;10.50;99.90;;;;;;5033650;28;20044;-76
2023/12/29 07:45:37;;;;;;;11.60;1.05;;;10.50;99.90;;;;;;5031879;28;20026;-77
2023/12/29 07:48:03;;;;;;;11.23;1.30;;;10.50;99.90;;;;;;5033070;28;20030;-75
2023/12/29 07:50:29;;;;;;;13.48;1.40;;;10.50;99.90;;;;;;5032587;28;20080;-74
2023/12/29 07:52:55;;;;;;;13.70;1.67;;;10.50;99.90;;;;;;5032916;28;20418;-80
2023/12/29 07:55:20;;;;;;;12.02;1.35;;;10.50;99.90;;;;;;5033027;28;20057;-74
2023/12/29 07:57:46;;;;;;;11.57;1.45;;;10.50;99.90;;;;;;5032736;28;20061;-75
2023/12/29 08:00:16;;;;;;;10.32;1.63;;;10.50;99.90;;;;;;5032579;28;20029;-76
2023/12/29 08:02:42;;;;;;;12.52;1.65;;;10.50;99.90;;;;;;5033023;28;20032;-75
2023/12/29 08:05:10;;;;;;;10.13;1.73;;;10.50;99.90;;;;;;5032936;28;20192;-77
2023/12/29 08:07:40;;;;;;;8.73;1.55;;;10.50;99.90;;;;;;5033069;28;20029;-80
2023/12/29 08:10:06;;;;;;;13.23;1.38;;;10.50;99.90;;;;;;5037045;28;20419;-75
2023/12/29 08:12:33;;;;;;;9.65;1.30;;;10.50;99.90;;;;;;5036850;28;20071;-81
2023/12/29 08:15:00;;;;;;;10.25;1.20;;;10.50;99.90;;;;;;5019761;28;20054;-77
2023/12/29 08:17:26;;;;;;;11.45;1.67;;;10.50;99.90;;;;;;5035944;28;20052;-80
2023/12/29 08:19:51;;;;;;;13.13;1.27;;;10.50;99.90;;;;;;5036890;28;20025;-78
2023/12/29 08:22:17;;;;;;;9.02;0.90;;;10.50;99.90;;;;;;5019668;28;20037;-77
2023/12/29 08:24:43;;;;;;;9.52;1.10;;;10.50;99.90;;;;;;5036704;28;20041;-75
2023/12/29 08:27:10;;;;;;;5.55;0.77;;;10.50;99.90;;;;;;5036908;28;20033;-76
2023/12/29 08:29:36;;;;;;;9.57;1.20;;;10.50;99.90;;;;;;5037090;28;20041;-76
2023/12/29 08:32:02;;;;;;;7.53;1.13;;;10.50;99.90;;;;;;5036240;28;20113;-76
2023/12/29 08:34:28;;;;;;;8.82;1.17;;;10.60;99.90;;;;;;5034991;28;20037;-76
2023/12/29 08:36:53;;;;;;;7.65;1.05;;;10.50;99.90;;;;;;5036613;28;20029;-77
2023/12/29 08:39:19;;;;;;;9.18;0.82;;;10.50;99.90;;;;;;5036417;28;20030;-75
2023/12/29 08:41:46;;;;;;;12.23;1.20;;;10.50;99.90;;;;;;5036079;28;20043;-76
2023/12/29 08:44:12;;;;;;;9.10;0.98;;;10.60;99.90;;;;;;5036463;28;20075;-78
2023/12/29 08:46:37;;;;;;;10.15;1.08;;;10.60;99.90;;;;;;5035089;28;20419;-79
2023/12/29 08:49:03;;;;;;;9.82;1.40;;;10.60;99.90;;;;;;5035152;28;20052;-78
2023/12/29 08:51:29;;;;;;;8.73;0.90;;;10.60;99.90;;;;;;5018449;28;20060;-78
2023/12/29 08:53:54;;;;;;;8.75;1.00;;;10.60;99.90;;;;;;5036184;28;20029;-77
2023/12/29 08:56:20;;;;;;;9.05;1.02;;;10.60;99.90;;;;;;5035866;28;20037;-77
2023/12/29 08:58:46;;;;;;;5.57;0.68;;;10.60;99.90;;;;;;5034769;28;20030;-78
2023/12/29 09:01:12;;;;;;;6.97;0.82;;;10.60;99.90;;;;;;5036235;28;20064;-78
2023/12/29 09:03:38;;;;;;;6.80;0.73;;;10.60;99.90;;;;;;5036316;28;20445;-80
2023/12/29 09:06:04;;;;;;;7.40;0.75;;;10.60;99.90;;;;;;5036398;28;20033;-74
2023/12/29 09:08:30;;;;;;;4.35;0.55;;;10.70;99.90;;;;;;5036247;28;20040;-77
2023/12/29 09:10:56;;;;;;;6.75;0.80;;;10.60;99.90;;;;;;5036431;28;20029;-78
2023/12/29 09:13:25;;;;;;;5.80;1.15;;;10.70;99.90;;;;;;5035606;28;20049;-74
2023/12/29 09:15:50;;;;;;;7.60;0.77;;;10.70;99.90;;;;;;5035673;28;20036;-77
2023/12/29 09:18:16;;;;;;;6.85;0.98;;;10.80;99.90;;;;;;5035627;28;20407;-76
2023/12/29 09:20:42;;;;;;;8.05;1.00;;;10.80;99.90;;;;;;5034403;28;20029;-77
2023/12/29 09:23:07;;;;;;;10.32;0.77;;;10.80;99.90;;;;;;5035836;28;20482;-79
2023/12/29 09:25:33;;;;;;;6.35;0.50;;;10.80;99.90;;;;;;5035777;28;20032;-78
2023/12/29 09:27:59;;;;;;;7.40;0.77;;;10.80;99.90;;;;;;5036103;28;20478;-77
2023/12/29 09:30:24;;;;;;;6.93;0.80;;;10.80;99.90;;;;;;5034752;28;20030;-79
2023/12/29 09:32:50;;;;;;;5.88;0.70;;;10.80;99.90;;;;;;5035534;28;20037;-83
2023/12/29 09:35:17;;;;;;;5.32;0.70;;;10.80;99.90;;;;;;5035372;28;20087;-78
2023/12/29 09:37:43;;;;;;;8.05;0.90;;;10.90;99.90;;;;;;5035170;28;20033;-78
2023/12/29 09:40:10;;;;;;;4.05;0.40;;;10.90;99.90;;;;;;5034013;28;20399;-75
2023/12/29 09:42:38;;;;;;;6.47;0.70;;;10.90;99.90;;;;;;5035630;28;20033;-76
2023/12/29 09:45:09;;;;;;;5.63;0.50;;;10.90;99.90;;;;;;5035484;28;20030;-79
2023/12/29 09:47:42;;;;;;;5.57;0.60;;;10.90;99.90;;;;;;5035152;28;20464;-75
2023/12/29 09:50:11;;;;;;;5.07;0.50;;;10.90;99.90;;;;;;5035459;28;20030;-76
2023/12/29 09:52:38;;;;;;;4.85;0.50;;;11.00;99.90;;;;;;5033673;28;20052;-78
2023/12/29 09:55:07;;;;;;;6.40;0.85;;;11.00;99.90;;;;;;5034627;28;20033;-82
2023/12/29 09:57:33;;;;;;;5.22;0.88;;;11.00;99.90;;;;;;5035034;28;20034;-76
2023/12/29 09:59:59;;;;;;;3.08;0.45;;;11.00;99.90;;;;;;5033622;28;20109;-75
2023/12/29 10:02:25;;;;;;;3.08;0.50;;;11.00;99.90;;;;;;5034620;28;20068;-75
2023/12/29 10:04:51;;;;;;;5.30;0.75;;;11.00;99.90;;;;;;5034794;28;20057;-77
2023/12/29 10:07:26;;;;;;;8.73;0.95;;;11.00;99.90;;;;;;5034568;28;20029;-75
2023/12/29 10:09:58;;;;;;;3.63;0.45;;;11.00;99.90;;;;;;5033399;28;20030;-77
2023/12/29 10:12:24;;;;;;;6.50;0.82;;;11.10;99.90;;;;;;5033188;28;20455;-76
2023/12/29 10:14:59;;;;;;;4.22;0.52;;;11.10;99.90;;;;;;5033080;28;20126;-77
2023/12/29 10:17:41;;;;;;;5.38;0.75;;;11.10;99.90;;;;;;5034789;28;20029;-76
2023/12/29 10:20:22;;;;;;;4.13;0.30;;;11.10;99.90;;;;;;5033476;28;20033;-80
2023/12/29 10:23:00;;;;;;;4.30;0.35;;;11.10;99.90;;;;;;5034565;28;20033;-83
2023/12/29 10:25:25;;;;;;;3.28;0.70;;;11.20;99.90;;;;;;5034745;28;20041;-81
2023/12/29 10:27:51;;;;;;;1.92;0.50;;;11.20;99.90;;;;;;5034415;28;20033;-79
2023/12/29 10:30:18;;;;;;;2.30;0.47;;;11.20;99.90;;;;;;5035800;28;20036;-82
2023/12/29 10:32:50;;;;;;;3.60;0.68;;;11.20;99.90;;;;;;5034388;28;20041;-81
2023/12/29 10:35:16;;;;;;;1.58;0.38;;;11.20;99.90;;;;;;5034969;28;20072;-81
2023/12/29 10:37:41;;;;;;;4.60;0.77;;;11.20;99.90;;;;;;5001062;28;20455;-82
2023/12/29 10:40:08;;;;;;;2.40;0.32;;;11.20;99.90;;;;;;5033778;28;20060;-82
2023/12/29 10:42:34;;;;;;;3.08;0.30;;;11.20;99.90;;;;;;5034672;28;20122;-81
2023/12/29 10:45:07;;;;;;;1.55;0.32;;;11.20;99.90;;;;;;5035442;28;20025;-82
2023/12/29 10:47:35;;;;;;;2.38;0.30;;;11.20;99.90;;;;;;5035771;28;20038;-83
2023/12/29 10:50:03;;;;;;;2.30;0.20;;;11.30;99.90;;;;;;5035324;28;20026;-78
2023/12/29 10:52:29;;;;;;;3.38;0.30;;;11.30;99.90;;;;;;5033333;28;20091;-82
2023/12/29 10:55:06;;;;;;;2.97;0.30;;;11.40;99.90;;;;;;5034371;28;20109;-83
2023/12/29 10:57:32;;;;;;;3.42;0.40;;;11.40;99.90;;;;;;5035932;28;20084;-80
2023/12/29 11:00:00;;;;;;;6.43;0.30;;;11.50;99.90;;;;;;5037223;28;20037;-80
2023/12/29 11:02:27;;;;;;;2.78;0.28;;;11.50;99.90;;;;;;5035245;28;20029;-80
2023/12/29 11:05:08;;;;;;;5.30;0.30;;;11.50;99.90;;;;;;5035765;28;20030;-79
2023/12/29 11:07:42;;;;;;;3.05;0.40;;;11.60;99.90;;;;;;5035440;28;20040;-79
2023/12/29 11:10:08;;;;;;;7.53;0.52;;;11.60;99.90;;;;;;5037452;28;20527;-80
2023/12/29 11:12:38;;;;;;;3.63;0.38;;;11.60;99.90;;;;;;5036299;28;20037;-80
2023/12/29 11:15:08;;;;;;;4.95;0.55;;;11.50;99.90;;;;;;5034216;28;20057;-81
2023/12/29 11:17:35;;;;;;;3.30;1.17;;;11.50;99.90;;;;;;5037804;28;20045;-81
2023/12/29 11:20:03;;;;;;;3.72;0.30;;;11.50;99.90;;;;;;5036448;28;20107;-81
2023/12/29 11:22:30;;;;;;;2.28;0.40;;;11.50;99.90;;;;;;5036650;28;20043;-81
2023/12/29 11:24:59;;;;;;;3.58;0.30;;;11.50;99.90;;;;;;5037286;28;20112;-80
2023/12/29 11:27:27;;;;;;;4.63;1.25;;;11.50;99.90;;;;;;5037742;28;20021;-80
2023/12/29 11:29:53;;;;;;;2.95;0.50;;;11.50;99.90;;;;;;5037878;28;20033;-79
2023/12/29 11:32:27;;;;;;;5.30;0.65;;;11.60;99.90;;;;;;5037772;28;20566;-80
2023/12/29 11:35:00;;;;;;;6.47;0.55;;;11.60;99.90;;;;;;5035716;28;20096;-79
2023/12/29 11:37:45;;;;;;;4.00;0.93;;;11.70;99.90;;;;;;5038367;28;20099;-80
2023/12/29 11:40:18;;;;;;;6.47;0.90;;;11.70;99.90;;;;;;5034986;28;20363;-80
2023/12/29 11:42:47;;;;;;;6.32;0.70;;;11.70;99.90;;;;;;5038901;28;20029;-82
2023/12/29 11:45:34;;;;;;;7.95;0.55;;;11.70;99.90;;;;;;5040782;28;20463;-82
2023/12/29 11:48:02;;;;;;;8.25;0.57;;;11.80;99.90;;;;;;5043824;28;20052;-80
2023/12/29 11:50:40;;;;;;;6.75;0.68;;;11.80;99.90;;;;;;5041478;28;20097;-82
2023/12/29 11:53:07;;;;;;;4.30;0.52;;;11.80;99.90;;;;;;5039741;28;20148;-81
2023/12/29 11:55:36;;;;;;;5.40;0.50;;;11.80;99.90;;;;;;5038522;28;20116;-80
2023/12/29 11:58:04;;;;;;;7.18;0.98;;;11.90;99.90;;;;;;5037685;28;20026;-79
2023/12/29 12:00:44;;;;;;;5.35;0.82;;;11.90;99.90;;;;;;5037771;28;20029;-75
2023/12/29 12:03:31;;;;;;;7.63;0.57;;;11.90;99.90;;;;;;5037344;28;20033;-76
2023/12/29 12:05:58;;;;;;;5.90;0.60;;;11.90;99.90;;;;;;5038945;28;20029;-79
2023/12/29 12:08:35;;;;;;;9.07;1.02;;;11.80;99.90;;;;;;5039815;28;20033;-81
2023/12/29 12:11:28;;;;;;;8.68;0.57;;;11.90;99.90;;;;;;5037089;28;20028;-77
2023/12/29 12:13:55;;;;;;;7.00;0.85;;;11.90;99.90;;;;;;5036700;28;20050;-80
2023/12/29 12:16:42;;;;;;;13.23;1.35;;;11.90;99.90;;;;;;5037113;28;20470;-77
2023/12/29 12:19:09;;;;;;;7.93;0.77;;;11.80;99.90;;;;;;5036913;28;20029;-77
2023/12/29 12:21:36;;;;;;;8.82;0.70;;;11.90;99.90;;;;;;5035438;28;20033;-76
2023/12/29 12:24:04;;;;;;;10.07;0.80;;;11.90;99.90;;;;;;5035549;28;20423;-76
2023/12/29 12:26:31;;;;;;;5.53;0.93;;;11.90;99.90;;;;;;5036609;28;20032;-78
2023/12/29 12:28:57;;;;;;;9.20;1.65;;;11.90;99.90;;;;;;5036877;28;20380;-77
2023/12/29 12:31:23;;;;;;;5.22;0.60;;;11.90;99.90;;;;;;5036471;28;20080;-76
2023/12/29 12:34:00;;;;;;;6.18;0.52;;;11.90;99.90;;;;;;5036683;28;20033;-84
2023/12/29 12:36:26;;;;;;;10.57;1.20;;;11.90;99.90;;;;;;5037569;28;20450;-81
2023/12/29 12:38:54;;;;;;;8.85;1.27;;;11.90;99.90;;;;;;5036911;28;20034;-82